Time;durP1;ratioP1;P1;durP2;ratioP2;P2;SDS_P1;SDS_P2;PMS_P1;PMS_P2;Temp;Humidity;BMP_temperature;BMP_pressure;BME280_temperature;BME280_humidity;BME280_pressure;Samples;Min_cycle;Max_cycle;Signal;HPM_P1;HPM_P2
2022/06/19 00:00:00;;;;;;;7.38;2.25;;;;;;;;;;4824140;29;20050;-86
2022/06/19 00:02:27;;;;;;;4.60;2.13;;;;;;;;;;4824105;29;20046;-88
2022/06/19 00:04:54;;;;;;;6.90;1.80;;;;;;;;;;4818922;29;20046;-88
2022/06/19 00:07:21;;;;;;;11.60;2.47;;;;;;;;;;4809544;29;20050;-86
2022/06/19 00:09:47;;;;;;;5.07;1.52;;;;;;;;;;4808854;29;20042;-87
2022/06/19 00:12:14;;;;;;;8.73;1.77;;;;;;;;;;4810251;29;20460;-87
2022/06/19 00:14:40;;;;;;;5.97;1.80;;;;;;;;;;4826127;29;20045;-87
2022/06/19 00:17:06;;;;;;;5.82;1.95;;;14.50;99.90;;;;;;4812185;29;20042;-86
2022/06/19 00:19:33;;;;;;;5.75;1.90;;;;;;;;;;4812146;29;20057;-85
2022/06/19 00:21:59;;;;;;;6.28;1.75;;;;;;;;;;4812147;29;20492;-86
2022/06/19 00:24:25;;;;;;;9.73;2.30;;;;;;;;;;4825940;29;20141;-86
2022/06/19 00:26:51;;;;;;;6.20;2.78;;;;;;;;;;4827317;29;20053;-85
2022/06/19 00:29:17;;;;;;;6.60;2.60;;;;;;;;;;4812076;29;20046;-86
2022/06/19 00:31:43;;;;;;;6.65;1.83;;;;;;;;;;4827116;29;20056;-86
2022/06/19 00:34:09;;;;;;;10.70;3.42;;;;;;;;;;4818610;29;20084;-85
2022/06/19 00:36:35;;;;;;;11.48;2.45;;;;;;;;;;4780197;29;20051;-85
2022/06/19 00:39:01;;;;;;;5.40;1.60;;;;;;;;;;4775840;29;20107;-85
2022/06/19 00:41:32;;;;;;;6.35;1.90;;;;;;;;;;4790566;29;20046;-85
2022/06/19 00:44:02;;;;;;;11.77;2.25;;;14.40;99.90;;;;;;4790650;29;20086;-85
2022/06/19 00:46:40;;;;;;;10.10;2.67;;;;;;;;;;4774823;29;20054;-85
2022/06/19 00:49:10;;;;;;;9.10;1.98;;;14.40;99.90;;;;;;4775887;29;20089;-85
2022/06/19 00:51:36;;;;;;;6.50;1.83;;;;;;;;;;4775328;29;20083;-85
2022/06/19 00:54:02;;;;;;;8.38;2.15;;;;;;;;;;4790288;29;20054;-85
2022/06/19 00:56:30;;;;;;;7.47;2.90;;;;;;;;;;4774627;29;20496;-85
2022/06/19 00:58:56;;;;;;;7.32;3.03;;;;;;;;;;4775619;29;20453;-85
2022/06/19 01:01:24;;;;;;;5.15;1.70;;;14.60;99.90;;;;;;4775409;29;20047;-87
2022/06/19 01:03:50;;;;;;;11.73;2.35;;;;;;;;;;4775387;29;20047;-88
2022/06/19 01:06:16;;;;;;;6.82;2.13;;;;;;;;;;4773258;29;20043;-88
2022/06/19 01:08:42;;;;;;;9.07;2.55;;;;;;;;;;4790240;29;20058;-88
2022/06/19 01:11:08;;;;;;;9.05;2.42;;;;;;;;;;4775378;29;20564;-87
2022/06/19 01:13:36;;;;;;;6.00;2.40;;;;;;;;;;4775120;29;20412;-88
2022/06/19 01:16:03;;;;;;;9.43;2.88;;;;;;;;;;4774167;29;20061;-88
2022/06/19 01:18:30;;;;;;;9.45;3.05;;;;;;;;;;4762174;29;20111;-89
2022/06/19 01:20:58;;;;;;;10.88;2.30;;;;;;;;;;4774133;29;20050;-85
2022/06/19 01:23:41;;;;;;;12.60;2.75;;;14.30;99.90;;;;;;4801865;29;20051;-88
2022/06/19 01:26:10;;;;;;;19.35;3.35;;;14.50;99.90;;;;;;4757198;30;20047;-86
2022/06/19 01:28:46;;;;;;;11.15;2.92;;;;;;;;;;4772137;30;20108;-88
2022/06/19 01:31:14;;;;;;;13.07;2.90;;;;;;;;;;4757111;30;20088;-88
2022/06/19 01:33:43;;;;;;;12.10;2.97;;;;;;;;;;4757264;29;20054;-87
2022/06/19 01:36:12;;;;;;;9.07;2.58;;;14.70;99.90;;;;;;4774677;29;20054;-88
2022/06/19 01:38:39;;;;;;;10.82;2.70;;;;;;;;;;4774592;29;20453;-87
2022/06/19 01:41:11;;;;;;;9.43;2.67;;;14.60;99.90;;;;;;4775300;29;20374;-87
2022/06/19 01:43:37;;;;;;;13.10;2.35;;;;;;;;;;4774719;29;20053;-89
2022/06/19 01:46:05;;;;;;;8.60;2.85;;;14.60;99.90;;;;;;4770607;29;20059;-87
2022/06/19 01:48:32;;;;;;;10.65;2.88;;;14.60;99.90;;;;;;4789486;29;20513;-89
2022/06/19 01:51:02;;;;;;;16.05;3.63;;;14.70;99.90;;;;;;4777661;29;20129;-87
2022/06/19 01:53:50;;;;;;;9.18;3.05;;;;;;;;;;4774581;29;20104;-87
2022/06/19 01:56:16;;;;;;;12.35;3.40;;;;;;;;;;4772149;29;20051;-87
2022/06/19 01:58:49;;;;;;;11.23;2.88;;;14.50;99.90;;;;;;4790034;29;20111;-88
2022/06/19 02:01:16;;;;;;;14.23;2.45;;;;;;;;;;4789625;29;20050;-87
2022/06/19 02:03:45;;;;;;;16.92;2.83;;;;;;;;;;4789580;29;20054;-86
2022/06/19 02:06:16;;;;;;;6.35;2.30;;;14.60;99.90;;;;;;4773660;29;20051;-87
2022/06/19 02:08:43;;;;;;;15.60;2.58;;;;;;;;;;4774576;29;20081;-88
2022/06/19 02:11:11;;;;;;;17.05;3.25;;;;;;;;;;4789478;29;20467;-87
2022/06/19 02:13:38;;;;;;;26.60;3.60;;;;;;;;;;4774056;29;20151;-86
2022/06/19 02:16:08;;;;;;;10.63;2.75;;;14.60;99.90;;;;;;4771642;29;20042;-87
2022/06/19 02:18:41;;;;;;;11.70;3.13;;;14.70;99.90;;;;;;4779349;29;20051;-87
2022/06/19 02:21:07;;;;;;;11.98;2.58;;;;;;;;;;4774343;29;20104;-87
2022/06/19 02:23:35;;;;;;;13.65;3.40;;;;;;;;;;4774058;29;20062;-88
2022/06/19 02:26:02;;;;;;;11.88;3.10;;;14.40;99.90;;;;;;4773042;29;20150;-88
2022/06/19 02:28:29;;;;;;;11.55;2.85;;;;;;;;;;4774039;29;20125;-87
2022/06/19 02:30:55;;;;;;;19.95;3.42;;;;;;;;;;4774445;29;20126;-87
2022/06/19 02:33:26;;;;;;;15.95;2.63;;;14.60;99.90;;;;;;4773960;29;20059;-88
2022/06/19 02:35:52;;;;;;;13.55;2.38;;;;;;;;;;4806645;29;20615;-88
2022/06/19 02:38:20;;;;;;;11.38;3.92;;;14.50;99.90;;;;;;4771744;29;20062;-87
2022/06/19 02:40:58;;;;;;;10.85;2.90;;;;;;;;;;4788684;29;20055;-88
2022/06/19 02:43:29;;;;;;;12.32;2.28;;;14.50;99.90;;;;;;4804675;29;20089;-87
2022/06/19 02:45:55;;;;;;;12.73;3.92;;;;;;;;;;4789028;29;20050;-88
2022/06/19 02:48:29;;;;;;;17.25;3.38;;;14.60;99.90;;;;;;4772947;29;20043;-87
2022/06/19 02:50:56;;;;;;;19.63;2.80;;;;;;;;;;4804949;29;20047;-87
2022/06/19 02:53:22;;;;;;;8.95;3.03;;;;;;;;;;4788539;29;20042;-88
2022/06/19 02:55:48;;;;;;;15.35;2.25;;;;;;;;;;4788402;29;20042;-87
2022/06/19 02:58:15;;;;;;;6.40;2.47;;;;;;;;;;4787321;29;20126;-87
2022/06/19 03:00:41;;;;;;;11.50;2.22;;;;;;;;;;4773789;29;20043;-88
2022/06/19 03:03:25;;;;;;;19.50;3.38;;;14.50;99.90;;;;;;4788531;29;20059;-87
2022/06/19 03:05:51;;;;;;;;;;;14.40;99.90;;;;;;4784087;29;20516;-87
2022/06/19 03:08:17;;;;;;;9.52;3.10;;;;;;;;;;4788770;29;19925;-87
2022/06/19 03:10:43;;;;;;;11.75;2.80;;;;;;;;;;4773385;29;20116;-86
2022/06/19 03:13:09;;;;;;;15.73;3.10;;;;;;;;;;4804916;29;20066;-86
2022/06/19 03:15:36;;;;;;;9.18;2.33;;;;;;;;;;4788801;29;20043;-87
2022/06/19 03:18:02;;;;;;;14.55;3.00;;;;;;;;;;4773435;29;20058;-87
2022/06/19 03:20:28;;;;;;;5.85;2.17;;;;;;;;;;4785847;29;20093;-86
2022/06/19 03:22:55;;;;;;;12.48;2.67;;;;;;;;;;4779222;29;20039;-87
2022/06/19 03:25:21;;;;;;;14.52;2.33;;;;;;;;;;4804431;29;20051;-88
2022/06/19 03:27:48;;;;;;;8.13;2.35;;;;;;;;;;4804670;29;20039;-87
2022/06/19 03:30:16;;;;;;;14.25;3.08;;;14.40;99.90;;;;;;4772762;29;20051;-87
2022/06/19 03:32:42;;;;;;;12.68;3.03;;;;;;;;;;4788391;29;20051;-86
2022/06/19 03:35:08;;;;;;;22.40;3.22;;;;;;;;;;4778544;29;20470;-86
2022/06/19 03:37:34;;;;;;;9.43;2.50;;;;;;;;;;4803207;29;20094;-86
2022/06/19 03:40:00;;;;;;;18.08;3.40;;;;;;;;;;4771149;29;20111;-85
2022/06/19 03:42:26;;;;;;;16.13;3.20;;;;;;;;;;4773021;29;20086;-84
2022/06/19 03:44:52;;;;;;;12.93;3.67;;;;;;;;;;4773143;29;20065;-83
2022/06/19 03:47:20;;;;;;;11.40;3.00;;;;;;;;;;4784030;29;20046;-85
2022/06/19 03:49:46;;;;;;;9.07;2.85;;;;;;;;;;4790844;29;20176;-85
2022/06/19 03:52:12;;;;;;;19.27;2.78;;;;;;;;;;4775436;29;20051;-85
2022/06/19 03:54:38;;;;;;;7.22;2.47;;;;;;;;;;4791389;29;20062;-88
2022/06/19 03:57:04;;;;;;;15.52;3.58;;;;;;;;;;4791316;29;20139;-87
2022/06/19 03:59:31;;;;;;;9.95;2.55;;;;;;;;;;4776465;29;20047;-85
2022/06/19 04:01:57;;;;;;;16.45;3.72;;;;;;;;;;4787655;29;20043;-84
2022/06/19 04:04:23;;;;;;;7.53;2.30;;;;;;;;;;4791473;29;20145;-84
2022/06/19 04:06:49;;;;;;;11.23;2.33;;;;;;;;;;4776010;29;20097;-87
2022/06/19 04:09:16;;;;;;;10.52;2.50;;;;;;;;;;4791479;29;20054;-86
2022/06/19 04:11:43;;;;;;;7.30;2.40;;;;;;;;;;4799296;29;20078;-84
2022/06/19 04:14:10;;;;;;;8.90;3.03;;;;;;;;;;4802071;29;20062;-85
2022/06/19 04:16:36;;;;;;;12.57;3.30;;;;;;;;;;4776124;29;20133;-85
2022/06/19 04:19:04;;;;;;;10.43;2.67;;;13.90;99.90;;;;;;4776175;29;20047;-86
2022/06/19 04:21:32;;;;;;;16.17;3.95;;;13.70;99.90;;;;;;4781320;29;20054;-85
2022/06/19 04:23:59;;;;;;;15.90;3.30;;;;;;;;;;4789188;29;20417;-85
2022/06/19 04:26:27;;;;;;;6.75;2.35;;;;;;;;;;4776424;29;20450;-84
2022/06/19 04:28:53;;;;;;;8.65;2.95;;;;;;;;;;4790824;29;20129;-84
2022/06/19 04:31:19;;;;;;;18.27;3.38;;;;;;;;;;4790840;29;20054;-84
2022/06/19 04:33:45;;;;;;;11.35;2.85;;;;;;;;;;4773699;29;20042;-84
2022/06/19 04:36:12;;;;;;;10.18;2.50;;;;;;;;;;4825770;29;20419;-85
2022/06/19 04:38:39;;;;;;;8.98;3.28;;;;;;;;;;4826829;29;20050;-86
2022/06/19 04:41:05;;;;;;;18.00;2.95;;;;;;;;;;4826794;29;20522;-85
2022/06/19 04:43:31;;;;;;;13.70;3.38;;;;;;;;;;4810978;29;20049;-85
2022/06/19 04:46:02;;;;;;;13.20;3.95;;;13.30;99.90;;;;;;4812205;29;20456;-85
2022/06/19 04:48:28;;;;;;;10.20;2.67;;;;;;;;;;4811756;29;20046;-86
2022/06/19 04:50:54;;;;;;;14.32;3.00;;;;;;;;;;4811876;29;20057;-88
2022/06/19 04:53:20;;;;;;;11.75;2.53;;;;;;;;;;4811826;29;20376;-84
2022/06/19 04:55:46;;;;;;;12.95;2.42;;;;;;;;;;4825620;29;20060;-84
2022/06/19 04:58:12;;;;;;;9.32;3.03;;;;;;;;;;4810347;29;20070;-86
2022/06/19 05:00:40;;;;;;;13.43;3.03;;;;;;;;;;4811653;29;20095;-86
2022/06/19 05:03:06;;;;;;;7.22;4.15;;;;;;;;;;4826474;29;20045;-85
2022/06/19 05:05:32;;;;;;;15.95;3.88;;;;;;;;;;4809472;29;20054;-84
2022/06/19 05:07:58;;;;;;;10.13;3.60;;;;;;;;;;4811901;29;20089;-87
2022/06/19 05:10:24;;;;;;;6.88;2.72;;;;;;;;;;4826449;29;20043;-84
2022/06/19 05:12:55;;;;;;;11.90;3.30;;;;;;;;;;4811274;29;20045;-85
2022/06/19 05:15:21;;;;;;;15.70;2.83;;;;;;;;;;4810455;29;20121;-82
2022/06/19 05:17:47;;;;;;;14.32;2.67;;;;;;;;;;4826247;29;20102;-86
2022/06/19 05:20:13;;;;;;;9.90;3.03;;;;;;;;;;4811338;29;20141;-85
2022/06/19 05:22:39;;;;;;;17.48;2.55;;;;;;;;;;4811480;29;20050;-86
2022/06/19 05:25:08;;;;;;;11.68;2.90;;;;;;;;;;4825377;29;20046;-84
2022/06/19 05:27:40;;;;;;;11.43;2.38;;;13.10;99.90;;;;;;4811532;29;20061;-83
2022/06/19 05:30:07;;;;;;;14.77;2.67;;;13.00;99.90;;;;;;4825873;29;20412;-87
2022/06/19 05:32:34;;;;;;;7.50;1.92;;;;;;;;;;4842476;29;20099;-84
2022/06/19 05:35:00;;;;;;;5.25;2.05;;;;;;;;;;4841271;29;20419;-88
2022/06/19 05:37:26;;;;;;;15.23;2.63;;;;;;;;;;4826132;29;20534;-85
2022/06/19 05:39:52;;;;;;;7.93;2.33;;;;;;;;;;4826306;29;20117;-84
2022/06/19 05:42:18;;;;;;;12.75;2.20;;;;;;;;;;4826096;29;20050;-83
2022/06/19 05:44:44;;;;;;;10.70;2.33;;;;;;;;;;4825642;29;20187;-87
2022/06/19 05:47:11;;;;;;;11.45;2.90;;;;;;;;;;4824977;29;20411;-84
2022/06/19 05:49:38;;;;;;;8.77;2.30;;;;;;;;;;4826018;29;20168;-82
2022/06/19 05:52:12;;;;;;;7.88;2.47;;;;;;;;;;4825796;29;20056;-83
2022/06/19 05:54:39;;;;;;;21.65;3.13;;;;;;;;;;4826093;29;20053;-83
2022/06/19 05:57:05;;;;;;;8.88;2.40;;;;;;;;;;4824524;29;20046;-83
2022/06/19 05:59:31;;;;;;;9.70;1.85;;;;;;;;;;4825690;29;20054;-82
2022/06/19 06:01:57;;;;;;;7.85;2.03;;;;;;;;;;4810326;29;20056;-83
2022/06/19 06:04:23;;;;;;;17.27;2.53;;;;;;;;;;4809497;29;20061;-83
2022/06/19 06:06:49;;;;;;;6.40;2.25;;;;;;;;;;4809036;29;20054;-83
2022/06/19 06:09:15;;;;;;;6.47;1.90;;;;;;;;;;4809374;29;20487;-83
2022/06/19 06:11:41;;;;;;;9.00;2.78;;;;;;;;;;4824302;29;20061;-83
2022/06/19 06:14:08;;;;;;;9.77;2.08;;;;;;;;;;4809428;29;20045;-83
2022/06/19 06:16:34;;;;;;;9.25;1.92;;;;;;;;;;4829056;29;20045;-83
2022/06/19 06:19:00;;;;;;;13.63;3.20;;;;;;;;;;4822533;29;20054;-83
2022/06/19 06:21:26;;;;;;;7.38;1.83;;;;;;;;;;4809894;29;20053;-83
2022/06/19 06:23:53;;;;;;;8.85;1.80;;;;;;;;;;4810032;29;20046;-83
2022/06/19 06:26:21;;;;;;;10.75;1.92;;;;;;;;;;4825217;29;20058;-83
2022/06/19 06:28:48;;;;;;;14.63;3.60;;;13.10;99.90;;;;;;4807430;29;20054;-83
2022/06/19 06:31:15;;;;;;;12.38;3.13;;;;;;;;;;4809714;29;20050;-82
2022/06/19 06:33:41;;;;;;;8.85;2.28;;;;;;;;;;4810204;29;20054;-83
2022/06/19 06:36:08;;;;;;;12.98;2.95;;;;;;;;;;4824933;29;20507;-83
2022/06/19 06:38:34;;;;;;;6.80;1.92;;;;;;;;;;4823759;29;20120;-83
2022/06/19 06:41:00;;;;;;;7.15;1.95;;;;;;;;;;4808981;29;20052;-83
2022/06/19 06:43:26;;;;;;;11.40;2.00;;;;;;;;;;4809648;29;20050;-83
2022/06/19 06:45:52;;;;;;;4.72;2.10;;;;;;;;;;4809503;29;20042;-85
2022/06/19 06:48:19;;;;;;;6.63;2.40;;;13.40;99.90;;;;;;4808760;29;20042;-85
2022/06/19 06:50:46;;;;;;;7.10;2.10;;;13.30;99.90;;;;;;4809641;29;20046;-84
2022/06/19 06:53:13;;;;;;;6.07;1.80;;;13.40;99.90;;;;;;4809683;29;20041;-84
2022/06/19 06:55:40;;;;;;;8.75;2.83;;;;;;;;;;4809710;29;20495;-84
2022/06/19 06:58:06;;;;;;;11.07;3.10;;;;;;;;;;4824649;29;20534;-85
2022/06/19 07:00:32;;;;;;;3.85;2.13;;;;;;;;;;4826810;29;20499;-86
2022/06/19 07:02:59;;;;;;;9.18;1.83;;;;;;;;;;4812042;29;20379;-86
2022/06/19 07:05:28;;;;;;;13.77;2.45;;;13.50;99.90;;;;;;4827017;29;20190;-85
2022/06/19 07:07:54;;;;;;;12.13;2.75;;;;;;;;;;4809785;29;20411;-89
2022/06/19 07:10:20;;;;;;;12.95;2.50;;;;;;;;;;4822093;29;20414;-85
2022/06/19 07:12:47;;;;;;;8.95;2.00;;;;;;;;;;4807014;29;20045;-88
2022/06/19 07:15:13;;;;;;;13.25;2.28;;;;;;;;;;4824853;29;20133;-89
2022/06/19 07:17:40;;;;;;;4.70;1.73;;;;;;;;;;4823710;29;20424;-87
2022/06/19 07:20:06;;;;;;;6.22;2.85;;;;;;;;;;4809327;29;20476;-87
2022/06/19 07:22:32;;;;;;;11.60;2.25;;;;;;;;;;4808647;29;20568;-88
2022/06/19 07:24:58;;;;;;;10.43;2.38;;;;;;;;;;4813432;29;20049;-84
2022/06/19 07:27:25;;;;;;;10.32;2.17;;;;;;;;;;4813014;29;20057;-87
2022/06/19 07:29:51;;;;;;;6.60;2.13;;;;;;;;;;4828181;29;20054;-88
2022/06/19 07:32:17;;;;;;;7.22;2.22;;;;;;;;;;4811575;29;20057;-83
2022/06/19 07:34:42;;;;;;;8.30;2.13;;;13.90;99.90;;;;;;4813022;29;20070;-83
2022/06/19 07:37:13;;;;;;;7.22;2.15;;;13.80;99.90;;;;;;4828389;29;20058;-83
2022/06/19 07:39:39;;;;;;;12.93;1.92;;;;;;;;;;4828282;29;20068;-83
2022/06/19 07:42:08;;;;;;;11.82;2.85;;;;;;;;;;4812765;29;20090;-83
2022/06/19 07:44:35;;;;;;;8.57;3.10;;;13.90;99.90;;;;;;4810417;29;20050;-83
2022/06/19 07:52:30;;;;;;;7.28;2.25;;;;;;;;;;4826509;29;20098;-84
2022/06/19 07:54:57;;;;;;;10.07;2.55;;;;;;;;;;4811000;29;20050;-84
2022/06/19 07:57:23;;;;;;;10.57;2.78;;;;;;;;;;4827400;29;20130;-83
2022/06/19 07:59:49;;;;;;;9.70;2.22;;;;;;;;;;4827529;29;20046;-83
2022/06/19 08:02:15;;;;;;;15.80;3.35;;;;;;;;;;4827385;29;20069;-83
2022/06/19 08:04:41;;;;;;;15.48;2.78;;;;;;;;;;4811657;29;20050;-83
2022/06/19 08:07:07;;;;;;;9.43;2.55;;;;;;;;;;4812599;29;20465;-83
2022/06/19 08:09:33;;;;;;;7.70;1.90;;;;;;;;;;4827799;29;20412;-83
2022/06/19 08:12:00;;;;;;;7.20;1.85;;;;;;;;;;4808233;29;20069;-83
2022/06/19 08:14:26;;;;;;;15.35;2.13;;;;;;;;;;4826232;29;20058;-83
2022/06/19 08:16:52;;;;;;;7.28;2.40;;;;;;;;;;4812226;29;20046;-84
2022/06/19 08:19:18;;;;;;;5.70;2.10;;;;;;;;;;4826986;29;20119;-83
2022/06/19 08:21:44;;;;;;;7.03;1.90;;;;;;;;;;4804623;29;20075;-83
2022/06/19 08:24:10;;;;;;;7.05;2.55;;;;;;;;;;4816398;29;20053;-83
2022/06/19 08:26:36;;;;;;;7.03;2.03;;;;;;;;;;4811944;29;20050;-83
2022/06/19 08:29:03;;;;;;;7.30;2.10;;;;;;;;;;4827028;29;20057;-83
2022/06/19 08:31:29;;;;;;;12.05;1.92;;;;;;;;;;4811254;29;20086;-83
2022/06/19 08:33:56;;;;;;;6.22;1.83;;;;;;;;;;4822011;29;20054;-83
2022/06/19 08:36:22;;;;;;;6.72;2.03;;;;;;;;;;4764021;30;20047;-83
2022/06/19 08:38:54;;;;;;;8.27;1.80;;;14.20;99.90;;;;;;4769401;30;20051;-84
2022/06/19 08:41:23;;;;;;;10.70;2.10;;;;;;;;;;4758233;30;20047;-83
2022/06/19 08:43:52;;;;;;;4.25;1.50;;;;;;;;;;4769761;29;20051;-86
2022/06/19 08:46:18;;;;;;;7.80;1.67;;;;;;;;;;4790763;29;20043;-88
2022/06/19 08:48:44;;;;;;;7.95;1.70;;;;;;;;;;4761848;29;20051;-88
2022/06/19 08:51:43;;;;;;;7.18;1.60;;;14.30;99.90;;;;;;4776091;29;20086;-87
2022/06/19 08:54:18;;;;;;;6.13;1.92;;;;;;;;;;4775051;29;20083;-87
2022/06/19 08:56:47;;;;;;;11.93;1.90;;;;;;;;;;4775611;29;20054;-84
2022/06/19 08:59:21;;;;;;;5.90;1.35;;;;;;;;;;4775776;29;20086;-85
2022/06/19 09:02:04;;;;;;;6.43;1.90;;;;;;;;;;4775635;29;20079;-85
2022/06/19 09:08:02;;;;;;;4.80;1.90;;;14.30;99.90;;;;;;4790489;29;20412;-88
2022/06/19 09:11:08;;;;;;;2.25;1.42;;;14.40;99.90;;;;;;4790603;29;20102;-86
2022/06/19 09:14:11;;;;;;;7.22;1.63;;;14.40;99.90;;;;;;4698612;30;20057;-87
2022/06/19 09:16:39;;;;;;;6.00;1.27;;;14.60;99.90;;;;;;4686546;30;20145;-87
2022/06/19 09:19:14;;;;;;;3.38;1.40;;;;;;;;;;4715808;30;20049;-86
2022/06/19 09:22:12;;;;;;;5.13;1.33;;;14.70;99.90;;;;;;4716125;30;20143;-88
2022/06/19 09:24:47;;;;;;;4.70;2.03;;;;;;;;;;4704016;30;20056;-87
2022/06/19 09:27:17;;;;;;;8.05;1.67;;;14.70;99.90;;;;;;4732948;30;20061;-86
2022/06/19 09:29:53;;;;;;;6.40;1.75;;;14.80;99.90;;;;;;4718673;30;20061;-85
2022/06/19 09:32:37;;;;;;;2.00;1.30;;;14.70;99.90;;;;;;4718074;30;20056;-84
2022/06/19 09:35:16;;;;;;;7.60;1.77;;;15.00;99.90;;;;;;4725910;30;20163;-84
2022/06/19 09:37:48;;;;;;;7.68;1.77;;;;;;;;;;4732795;30;20056;-85
2022/06/19 09:40:21;;;;;;;5.65;1.63;;;14.80;99.90;;;;;;4718378;30;20414;-84
2022/06/19 09:43:12;;;;;;;7.88;3.80;;;14.90;99.90;;;;;;4717913;30;20159;-83
2022/06/19 09:45:46;;;;;;;3.15;1.25;;;15.10;99.90;;;;;;4717239;30;20167;-82
2022/06/19 09:48:44;;;;;;;4.82;1.95;;;15.10;99.90;;;;;;4729265;29;20062;-82
2022/06/19 09:51:22;;;;;;;3.30;1.15;;;15.20;99.90;;;;;;4804432;29;20055;-82
2022/06/19 09:54:03;;;;;;;4.03;1.25;;;14.90;99.90;;;;;;4804390;29;20600;-82
2022/06/19 09:56:32;;;;;;;6.28;1.25;;;15.10;99.90;;;;;;4790748;29;20054;-82
2022/06/19 09:59:20;;;;;;;5.38;1.27;;;15.50;99.90;;;;;;4807306;29;20058;-83
2022/06/19 10:01:56;;;;;;;3.22;1.25;;;15.20;99.90;;;;;;4821371;29;20519;-82
2022/06/19 10:04:44;;;;;;;3.05;1.48;;;15.20;99.90;;;;;;4822108;29;20061;-83
2022/06/19 10:07:39;;;;;;;9.77;1.65;;;15.30;99.90;;;;;;4820627;29;20042;-83
2022/06/19 10:10:15;;;;;;;6.47;1.50;;;15.50;99.90;;;;;;4734860;30;20533;-83
2022/06/19 10:12:44;;;;;;;4.70;1.30;;;15.50;99.90;;;;;;4734914;30;20056;-83
2022/06/19 10:15:14;;;;;;;2.45;1.40;;;;;;;;;;4734905;30;20133;-83
2022/06/19 10:17:54;;;;;;;1.52;1.13;;;15.50;99.90;;;;;;4734061;30;20686;-83
2022/06/19 10:20:31;;;;;;;2.17;1.65;;;15.50;99.90;;;;;;4734778;30;20060;-83
2022/06/19 10:22:57;;;;;;;8.77;1.35;;;;;;;;;;4734531;30;20124;-83
2022/06/19 10:25:38;;;;;;;3.72;1.13;;;;;;;;;;4734669;30;20056;-83
2022/06/19 10:28:37;;;;;;;1.65;1.17;;;15.50;99.90;;;;;;4735080;30;20155;-83
2022/06/19 10:31:15;;;;;;;3.63;1.00;;;;;;;;;;4732193;30;20064;-83
2022/06/19 10:33:41;;;;;;;0.70;0.70;;;;;;;;;;4732610;30;20061;-83
2022/06/19 10:36:31;;;;;;;0.88;0.73;;;16.20;99.90;;;;;;4731753;30;20069;-82
2022/06/19 10:39:09;;;;;;;3.47;1.30;;;16.00;99.90;;;;;;4732028;30;20172;-82
2022/06/19 10:44:36;;;;;;;3.67;1.08;;;16.30;99.90;;;;;;4716654;30;20540;-84
2022/06/19 10:47:36;;;;;;;2.60;1.13;;;16.10;99.90;;;;;;4761339;29;20128;-83
2022/06/19 10:50:13;;;;;;;2.30;1.20;;;16.10;99.90;;;;;;4720788;30;20608;-83
2022/06/19 10:53:02;;;;;;;1.42;1.05;;;16.40;99.90;;;;;;4727959;30;20067;-83
2022/06/19 10:55:34;;;;;;;3.17;1.10;;;;;;;;;;4717780;30;20056;-83
2022/06/19 10:58:08;;;;;;;4.47;1.25;;;16.40;99.90;;;;;;4702462;30;20057;-83
2022/06/19 11:00:34;;;;;;;1.95;1.08;;;;;;;;;;4737616;30;20112;-83
2022/06/19 11:06:01;;;;;;;2.03;1.00;;;16.10;99.90;;;;;;4716835;30;20053;-83
2022/06/19 11:08:34;;;;;;;4.47;1.08;;;16.10;99.90;;;;;;4734141;30;20060;-83
2022/06/19 11:11:00;;;;;;;5.68;1.48;;;;;;;;;;4733340;30;20063;-83
2022/06/19 11:13:46;;;;;;;4.72;1.67;;;;;;;;;;4719778;30;20502;-83
2022/06/19 11:16:12;;;;;;;4.35;1.95;;;;;;;;;;4734612;30;20121;-83
2022/06/19 11:18:50;;;;;;;3.28;1.55;;;16.20;99.90;;;;;;4718820;30;20117;-83
2022/06/19 11:21:23;;;;;;;2.45;1.20;;;16.20;99.90;;;;;;4702352;30;20063;-83
2022/06/19 11:23:49;;;;;;;1.35;0.88;;;16.00;99.90;;;;;;4702256;30;20075;-83
2022/06/19 11:26:34;;;;;;;5.70;1.58;;;;;;;;;;4741912;29;20507;-83
2022/06/19 11:29:00;;;;;;;4.40;1.77;;;;;;;;;;4806606;29;20588;-83
2022/06/19 11:31:35;;;;;;;3.10;1.08;;;16.00;99.90;;;;;;4821736;29;20050;-83
2022/06/19 11:37:22;;;;;;;1.65;1.35;;;16.00;99.90;;;;;;4819201;29;20050;-83
2022/06/19 11:39:59;;;;;;;6.13;2.03;;;14.00;99.90;;;;;;4804838;29;20085;-83
2022/06/19 11:42:32;;;;;;;3.85;1.52;;;;;;;;;;4806394;29;20107;-83
2022/06/19 11:45:02;;;;;;;5.25;1.60;;;16.00;99.90;;;;;;4806388;29;20050;-83
2022/06/19 11:47:37;;;;;;;5.65;1.23;;;16.10;99.90;;;;;;4820188;29;20048;-83
2022/06/19 11:50:12;;;;;;;5.90;1.70;;;16.00;99.90;;;;;;4806331;29;20119;-83
2022/06/19 11:52:58;;;;;;;2.78;1.20;;;15.80;99.90;;;;;;4821084;29;20046;-83
2022/06/19 11:55:30;;;;;;;3.53;1.23;;;15.80;99.90;;;;;;4806164;29;20073;-83
2022/06/19 11:58:02;;;;;;;4.20;1.50;;;15.80;99.90;;;;;;4804768;29;20061;-83
2022/06/19 12:00:37;;;;;;;2.70;1.35;;;;;;;;;;4821112;29;20046;-84
2022/06/19 12:03:26;;;;;;;4.53;1.98;;;15.90;99.90;;;;;;4805967;29;20141;-83
2022/06/19 12:05:57;;;;;;;4.78;1.60;;;15.80;99.90;;;;;;4806217;29;20042;-83
2022/06/19 12:08:27;;;;;;;4.80;1.63;;;15.70;99.90;;;;;;4806453;29;20595;-83
2022/06/19 12:10:57;;;;;;;2.47;1.42;;;15.80;99.90;;;;;;4823472;29;20047;-83
2022/06/19 12:13:28;;;;;;;6.90;1.80;;;15.90;99.90;;;;;;4824455;29;20054;-84
2022/06/19 12:15:59;;;;;;;3.65;1.10;;;15.90;99.90;;;;;;4823640;29;20062;-83
2022/06/19 12:18:27;;;;;;;5.03;1.90;;;16.10;99.90;;;;;;4809190;29;20050;-83
2022/06/19 12:21:05;;;;;;;3.67;1.20;;;15.70;99.90;;;;;;4823319;29;20077;-84
2022/06/19 12:23:44;;;;;;;4.90;1.50;;;16.10;99.90;;;;;;4794038;29;20051;-84
2022/06/19 12:26:27;;;;;;;8.23;1.98;;;16.30;99.90;;;;;;4803821;29;20049;-84
2022/06/19 12:29:05;;;;;;;8.50;1.97;;;16.30;99.90;;;;;;4808623;29;20050;-83
2022/06/19 12:31:37;;;;;;;5.95;1.40;;;;;;;;;;4806791;29;20654;-84
2022/06/19 12:34:15;;;;;;;3.00;1.00;;;16.50;99.90;;;;;;4821348;29;20428;-84
2022/06/19 12:36:41;;;;;;;4.93;1.55;;;;;;;;;;4808908;29;20076;-83
2022/06/19 12:39:14;;;;;;;7.70;2.58;;;;;;;;;;4823975;29;20512;-84
2022/06/19 12:41:46;;;;;;;2.28;1.35;;;16.70;99.90;;;;;;4809063;29;20134;-84
2022/06/19 12:44:27;;;;;;;7.80;1.42;;;16.80;99.90;;;;;;4806551;29;20113;-84
2022/06/19 12:47:01;;;;;;;7.95;1.30;;;16.80;99.90;;;;;;4823918;29;20500;-84
2022/06/19 12:49:52;;;;;;;3.30;1.45;;;16.70;99.90;;;;;;4808925;29;20515;-84
2022/06/19 12:52:49;;;;;;;3.85;1.33;;;16.90;99.90;;;;;;4808902;29;20046;-84
2022/06/19 12:55:18;;;;;;;5.50;1.40;;;;;;;;;;4807726;29;20070;-85
2022/06/19 12:57:53;;;;;;;7.32;2.13;;;16.90;99.90;;;;;;4807863;29;20054;-85
2022/06/19 13:00:49;;;;;;;2.90;1.30;;;17.00;99.90;;;;;;4807809;29;20500;-84
2022/06/19 13:03:41;;;;;;;4.68;1.45;;;17.00;99.90;;;;;;4805441;29;20137;-84
2022/06/19 13:06:25;;;;;;;5.78;1.90;;;16.90;99.90;;;;;;4804571;29;20056;-84
2022/06/19 13:09:00;;;;;;;3.15;1.35;;;;;;;;;;4808629;29;20050;-85
2022/06/19 13:11:51;;;;;;;8.90;2.53;;;17.30;99.90;;;;;;4808194;29;20050;-85
2022/06/19 13:14:39;;;;;;;3.17;1.33;;;17.00;99.90;;;;;;4823363;29;20046;-84
2022/06/19 13:17:41;;;;;;;4.15;1.50;;;17.20;99.90;;;;;;4820740;29;20046;-84
2022/06/19 13:20:27;;;;;;;2.72;1.27;;;17.40;99.90;;;;;;4737820;30;20109;-85
2022/06/19 13:23:17;;;;;;;4.35;1.80;;;17.50;99.90;;;;;;4738953;30;20083;-87
2022/06/19 13:25:53;;;;;;;5.35;1.70;;;17.80;99.90;;;;;;4746329;30;20109;-86
2022/06/19 13:28:33;;;;;;;6.95;1.90;;;17.60;99.90;;;;;;4739081;30;20456;-84
2022/06/19 13:31:11;;;;;;;8.88;2.13;;;17.60;99.90;;;;;;4768201;30;20055;-85
2022/06/19 13:34:04;;;;;;;6.72;1.98;;;17.60;99.90;;;;;;4753382;30;20059;-84
2022/06/19 13:37:10;;;;;;;7.63;1.88;;;17.60;99.90;;;;;;4737778;30;20059;-86
2022/06/19 13:39:47;;;;;;;9.18;1.55;;;17.60;99.90;;;;;;4735862;30;20052;-86
2022/06/19 13:42:37;;;;;;;5.03;1.65;;;17.40;99.90;;;;;;4720932;30;20044;-84
2022/06/19 13:45:39;;;;;;;4.03;1.48;;;17.80;99.90;;;;;;4736194;30;20066;-84
2022/06/19 13:48:19;;;;;;;5.80;1.52;;;17.60;99.90;;;;;;4738326;30;20043;-85
2022/06/19 13:50:53;;;;;;;4.13;1.65;;;17.70;99.90;;;;;;4744220;30;20056;-86
2022/06/19 13:53:28;;;;;;;4.80;1.73;;;17.90;99.90;;;;;;4720989;30;20046;-86
2022/06/19 13:56:02;;;;;;;7.72;1.92;;;18.00;99.90;;;;;;4749223;29;20061;-86
2022/06/19 13:58:28;;;;;;;8.70;2.25;;;;;;;;;;4774976;29;20050;-86
2022/06/19 14:01:11;;;;;;;11.18;2.03;;;18.20;99.90;;;;;;4799547;29;20093;-85
2022/06/19 14:06:39;;;;;;;6.75;1.63;;;18.40;99.90;;;;;;4814237;29;20504;-87
2022/06/19 14:09:14;;;;;;;6.90;1.83;;;18.60;99.90;;;;;;4807251;29;20062;-87
2022/06/19 14:12:04;;;;;;;4.70;1.60;;;18.40;99.90;;;;;;4807348;29;20050;-87
2022/06/19 14:14:39;;;;;;;6.63;1.83;;;18.60;99.90;;;;;;4807278;29;20047;-86
2022/06/19 14:17:23;;;;;;;3.85;1.40;;;18.30;99.90;;;;;;4806617;29;20046;-86
2022/06/19 14:19:52;;;;;;;;;;;18.70;99.90;;;;;;4809351;29;20051;-85
2022/06/19 14:22:18;;;;;;;2.72;1.40;;;;;;;;;;4808496;29;19929;-84
2022/06/19 14:25:01;;;;;;;7.72;1.70;;;18.10;99.90;;;;;;4809124;29;20563;-85
2022/06/19 14:27:55;;;;;;;3.08;1.48;;;17.90;99.90;;;;;;4792899;29;20507;-84
2022/06/19 14:30:22;;;;;;;9.18;2.15;;;;;;;;;;4804358;29;20107;-84
2022/06/19 14:32:53;;;;;;;7.85;1.98;;;18.20;99.90;;;;;;4792814;29;20046;-84